ADDS METAR Data INFO
IDs: Format: Raw Decoded Include TAF

Data at: 0312 UTC 20 Jul 2018

KRDK 200255Z AUTO 25006KT 10SM CLR 24/21 A2981 RMK AO2
KRDK 200235Z AUTO 25005KT 10SM CLR 24/21 A2981 RMK AO2
KRDK 200215Z AUTO 25005KT 10SM CLR 25/22 A2980 RMK AO2
KRDK 200155Z AUTO 25004KT 10SM CLR 25/22 A2979 RMK AO2
KRDK 200135Z AUTO 25003KT 10SM CLR 26/22 A2979 RMK AO2
KRDK 200115Z AUTO 24004KT 10SM CLR 27/22 A2979 RMK AO2
KRDK 200055Z AUTO 25005KT 10SM CLR 28/22 A2979 RMK AO2
KRDK 200035Z AUTO 25005KT 10SM CLR 29/22 A2979 RMK AO2
KRDK 200015Z AUTO 26006KT 10SM CLR 29/21 A2978 RMK AO2
KRDK 192355Z AUTO 27008KT 10SM CLR 29/22 A2978 RMK AO2
KRDK 192335Z AUTO 26010KT 10SM CLR 29/21 A2978 RMK AO2
KRDK 192315Z AUTO 26010KT 10SM CLR 30/22 A2977 RMK AO2
KRDK 192255Z AUTO 25010KT 10SM CLR 30/22 A2978 RMK AO2
KRDK 192235Z AUTO 26008KT 10SM CLR 30/21 A2978 RMK AO2
KRDK 192215Z AUTO 10SM CLR 30/21 A2979 RMK AO2
KRDK 192155Z AUTO 26007KT 10SM CLR 30/21 A2979 RMK AO2
KRDK 192135Z AUTO 30008KT 10SM CLR 30/21 A2980 RMK AO2
KRDK 192115Z AUTO 29009KT 10SM CLR 30/21 A2980 RMK AO2
KRDK 192055Z AUTO 10SM CLR 30/22 A2980 RMK AO2
KRDK 192035Z AUTO 26008KT 10SM CLR 30/21 A2980 RMK AO2
KRDK 192015Z AUTO 26008G13KT 10SM CLR 29/21 A2981 RMK AO2
KRDK 191955Z AUTO 30010KT 10SM CLR 29/21 A2980 RMK AO2
KRDK 191935Z AUTO 30011KT 10SM CLR 29/21 A2980 RMK AO2
KRDK 191915Z AUTO 31011KT 10SM CLR 30/21 A2980 RMK AO2
KRDK 191855Z AUTO 29013G19KT 10SM CLR 30/21 A2980 RMK AO2
KRDK 191835Z AUTO 31013KT 10SM CLR 30/21 A2980 RMK AO2
KRDK 191815Z AUTO 31010G17KT 10SM FEW036 FEW042 30/22 A2979 RMK AO2
KRDK 191755Z AUTO 29009KT 10SM SCT029 SCT035 SCT042 30/23 A2980 RMK AO2
KRDK 191735Z AUTO 27009G15KT 10SM BKN026 BKN032 BKN038 30/24 A2980 RMK AO2
KRDK 191715Z AUTO 26008KT 10SM BKN025 BKN029 29/24 A2981 RMK AO2
KRDK 191655Z AUTO 29009G17KT 10SM SCT023 BKN030 29/24 A2981 RMK AO2
KRDK 191635Z AUTO 28011G17KT 10SM BKN021 BKN029 29/24 A2981 RMK AO2
KRDK 191615Z AUTO 25012G18KT 10SM BKN021 BKN025 29/24 A2980 RMK AO2
KRDK 191555Z AUTO 23012KT 10SM BKN020 BKN025 28/24 A2980 RMK AO2
KRDK 191535Z AUTO 21012KT 10SM FEW019 BKN034 28/24 A2980 RMK AO2
KRDK 191515Z AUTO 19006KT 10SM BKN035 26/22 A2981 RMK AO2
KRDK 191455Z AUTO 20006KT 10SM OVC037 25/21 A2981 RMK AO2
KRDK 191435Z AUTO 19006KT 10SM BKN039 BKN044 26/21 A2982 RMK AO2
KRDK 191415Z AUTO 20004KT 10SM SCT041 SCT048 26/22 A2981 RMK AO2
KRDK 191355Z AUTO 14005G10KT 10SM FEW015 FEW050 SCT065 25/23 A2981 RMK AO2
KRDK 191335Z AUTO 19005G14KT 8SM SCT008 BKN015 BKN050 25/23 A2983 RMK AO2
KRDK 191315Z AUTO 22010KT 8SM OVC006 24/23 A2983 RMK AO2
KRDK 191255Z AUTO 17006KT 6SM BR OVC006 23/22 A2982 RMK AO2
KRDK 191235Z AUTO 16006KT 6SM BR BKN007 22/22 A2982 RMK AO2
KRDK 191215Z AUTO 15005KT 5SM BR OVC008 22/22 A2983 RMK AO2
KRDK 191155Z AUTO 19005KT 6SM BR OVC008 22/22 A2985 RMK AO2
KRDK 191135Z AUTO 18004KT 7SM BKN011 21/21 A2984 RMK AO2
KRDK 191115Z AUTO 17005KT 7SM FEW013 21/21 A2984 RMK AO2
KRDK 191055Z AUTO 17005KT 8SM CLR 21/21 A2984 RMK AO2
KRDK 191035Z AUTO 16004KT 10SM CLR 21/21 A2984 RMK AO2
KRDK 191015Z AUTO 00000KT 10SM FEW035 SCT120 21/21 A2985 RMK AO2
KRDK 190955Z AUTO 15005KT 10SM SCT035 SCT055 OVC120 22/21 A2985 RMK AO2 P0001
KRDK 190935Z AUTO 00000KT 10SM SCT030 BKN060 OVC150 22/21 A2986 RMK AO2
KRDK 190915Z AUTO 20008KT 10SM FEW080 BKN130 OVC160 21/21 A2986 RMK AO2
KRDK 190855Z AUTO 12004KT 7SM -RA SCT036 BKN080 OVC130 21/21 A2985 RMK AO2 P0001
KRDK 190835Z AUTO 19004KT 8SM SCT038 BKN065 OVC120 22/21 A2988 RMK AO2
KRDK 190815Z AUTO 00000KT 10SM FEW038 FEW070 OVC110 22/20 A2990 RMK AO2
KRDK 190755Z AUTO 00000KT 10SM FEW050 SCT090 BKN120 22/20 A2990 RMK AO2
KRDK 190735Z AUTO 00000KT 10SM SCT028 BKN044 OVC050 22/20 A2990 RMK AO2
KRDK 190715Z AUTO 00000KT 10SM BKN027 BKN033 OVC041 22/20 A2991 RMK AO2
KRDK 190655Z AUTO 00000KT 10SM BKN034 OVC043 22/20 A2991 RMK AO2
KRDK 190635Z AUTO 14005KT 10SM SCT032 OVC040 22/20 A2991 RMK AO2
KRDK 190615Z AUTO 13003KT 10SM FEW026 BKN035 OVC043 22/20 A2990 RMK AO2
KRDK 190555Z AUTO 00000KT 10SM SCT026 OVC034 23/20 A2991 RMK AO2
KRDK 190535Z AUTO 00000KT 10SM OVC034 22/20 A2992 RMK AO2
KRDK 190515Z AUTO 11005KT 10SM OVC035 22/20 A2992 RMK AO2
KRDK 190455Z AUTO 00000KT 10SM SCT035 OVC190 23/20 A2993 RMK AO2
KRDK 190435Z AUTO 13005KT 10SM BKN190 OVC210 23/20 A2992 RMK AO2
KRDK 190415Z AUTO 11005KT 10SM SCT036 BKN210 BKN230 23/20 A2992 RMK AO2
KRDK 190355Z AUTO 12003KT 10SM OVC036 23/20 A2993 RMK AO2
KRDK 190335Z AUTO 13006KT 10SM OVC036 24/20 A2993 RMK AO2
KRDK 190315Z AUTO 14005KT 10SM OVC036 24/20 A2993 RMK AO2
KRDK 190255Z AUTO 12004KT 10SM OVC037 23/20 A2993 RMK AO2
KRDK 190235Z AUTO 10004KT 10SM OVC037 24/20 A2993 RMK AO2
KRDK 190215Z AUTO 00000KT 10SM OVC036 24/20 A2993 RMK AO2
KRDK 190155Z AUTO 11004KT 10SM BKN037 25/20 A2994 RMK AO2
KRDK 190135Z AUTO 10005KT 10SM FEW080 25/20 A2993 RMK AO2
KRDK 190115Z AUTO 11004KT 10SM FEW048 BKN080 25/20 A2994 RMK AO2
KRDK 190055Z AUTO 12007KT 10SM FEW048 BKN080 26/20 A2994 RMK AO2
KRDK 190035Z AUTO 14006KT 10SM OVC080 27/20 A2994 RMK AO2
KRDK 190015Z AUTO 14006G11KT 10SM OVC080 27/21 A2994 RMK AO2
KRDK 182355Z AUTO 14006KT 10SM OVC080 26/20 A2994 RMK AO2
KRDK 182335Z AUTO 13009KT 10SM OVC080 27/20 A2994 RMK AO2
KRDK 182315Z AUTO 10SM SCT065 OVC080 27/19 A2995 RMK AO2
KRDK 182255Z AUTO 13007G14KT 10SM BKN065 OVC075 27/19 A2996 RMK AO2
KRDK 182235Z AUTO 14006G13KT 10SM BKN065 OVC080 27/20 A2996 RMK AO2
KRDK 182215Z AUTO 15005KT 10SM FEW045 BKN060 OVC075 27/21 A2997 RMK AO2
KRDK 182155Z AUTO 13008KT 10SM SCT044 BKN060 OVC080 27/21 A2998 RMK AO2 P0004
KRDK 182135Z AUTO VRB06KT 10SM FEW041 BKN055 OVC080 27/22 A2998 RMK AO2
KRDK 182115Z AUTO 12006G12KT 10SM SCT055 BKN075 OVC085 26/21 A2999 RMK AO2
KRDK 182055Z AUTO 14009KT 10SM FEW025 BKN070 OVC085 27/21 A2999 RMK AO2
KRDK 182035Z AUTO 13008KT 10SM OVC070 26/21 A2999 RMK AO2
KRDK 182015Z AUTO 13011KT 10SM FEW024 FEW031 OVC070 26/21 A3000 RMK AO2
KRDK 181955Z AUTO 14009G15KT 10SM OVC070 27/21 A3000 RMK AO2
KRDK 181935Z AUTO 13012G17KT 10SM BKN070 27/21 A3001 RMK AO2
KRDK 181915Z AUTO 14012G18KT 10SM SCT070 28/21 A3001 RMK AO2
KRDK 181855Z AUTO 13011G18KT 10SM FEW029 FEW085 28/21 A3001 RMK AO2
KRDK 181835Z AUTO 14010KT 10SM FEW090 SCT110 28/21 A3001 RMK AO2
KRDK 181815Z AUTO 16010G16KT 10SM FEW027 FEW043 SCT090 28/20 A3002 RMK AO2
KRDK 181755Z AUTO 14008G14KT 10SM SCT027 SCT043 BKN110 27/22 A3002 RMK AO2
KRDK 181735Z AUTO 13008G13KT 10SM BKN100 27/21 A3003 RMK AO2
KRDK 181715Z AUTO 14008G16KT 10SM SCT026 BKN095 27/21 A3004 RMK AO2
KRDK 181655Z AUTO VRB06G13KT 10SM BKN025 BKN039 OVC110 27/21 A3004 RMK AO2
KRDK 181635Z AUTO 10008KT 10SM SCT025 OVC110 27/21 A3004 RMK AO2
KRDK 181615Z AUTO 13006KT 10SM SCT110 26/21 A3004 RMK AO2
KRDK 181555Z AUTO 11006G11KT 10SM SCT110 26/21 A3004 RMK AO2
KRDK 181535Z AUTO 11009KT 10SM CLR 26/21 A3005 RMK AO2
KRDK 181515Z AUTO 14008KT 10SM FEW075 FEW085 26/20 A3005 RMK AO2